Time;durP1;ratioP1;P1;durP2;ratioP2;P2;SDS_P1;SDS_P2;PMS_P1;PMS_P2;Temp;Humidity;BMP_temperature;BMP_pressure;BME280_temperature;BME280_humidity;BME280_pressure;Samples;Min_cycle;Max_cycle;Signal;HPM_P1;HPM_P2
2021/12/17 00:00:36;;;;;;;12.40;7.85;;;4.70;99.90;;;;;;5028599;28;20042;-72
2021/12/17 00:03:48;;;;;;;8.48;5.05;;;4.60;99.90;;;;;;5024508;28;20044;-72
2021/12/17 00:06:51;;;;;;;13.02;7.50;;;4.50;99.90;;;;;;5026663;28;20396;-72
2021/12/17 00:09:58;;;;;;;10.68;6.45;;;4.50;99.90;;;;;;5027744;28;20045;-71
2021/12/17 00:13:02;;;;;;;11.13;5.90;;;4.50;99.90;;;;;;5027906;28;20481;-72
2021/12/17 00:16:13;;;;;;;12.10;5.78;;;4.50;99.90;;;;;;5029491;28;20048;-72
2021/12/17 00:19:59;;;;;;;11.07;7.03;;;4.50;99.90;;;;;;5028868;28;20044;-72
2021/12/17 00:53:19;;;;;;;21.17;12.60;;;4.10;99.90;;;;;;5023071;28;20053;-72
2021/12/17 00:56:23;;;;;;;16.63;6.47;;;4.20;99.90;;;;;;5025601;28;20044;-72
2021/12/17 00:59:27;;;;;;;9.35;5.35;;;4.30;99.90;;;;;;5030310;28;20036;-72
2021/12/17 01:02:34;;;;;;;15.98;11.05;;;4.20;99.90;;;;;;5030237;28;20049;-72
2021/12/17 01:05:38;;;;;;;10.57;6.80;;;4.20;99.90;;;;;;5027180;28;20566;-72
2021/12/17 01:08:43;;;;;;;9.50;5.70;;;4.20;99.90;;;;;;5030386;28;20052;-72
2021/12/17 01:11:52;;;;;;;18.33;10.70;;;4.10;99.90;;;;;;5027793;28;20052;-72
2021/12/17 01:15:05;;;;;;;10.05;6.10;;;4.20;99.90;;;;;;5030228;28;20503;-72
2021/12/17 01:18:23;;;;;;;9.68;5.78;;;4.20;99.90;;;;;;5024443;28;20404;-72
2021/12/17 01:25:11;;;;;;;10.85;6.90;;;4.30;99.90;;;;;;5040707;28;20041;-72
2021/12/17 01:35:38;;;;;;;11.13;5.90;;;4.00;99.90;;;;;;5029664;28;20032;-72
2021/12/17 01:45:07;;;;;;;11.48;6.55;;;4.10;99.90;;;;;;5031163;28;20046;-72
2021/12/17 01:48:18;;;;;;;10.27;5.75;;;4.10;99.90;;;;;;5029215;28;20503;-72
2021/12/17 02:01:35;;;;;;;;;;;4.00;99.90;;;;;;5028225;28;20495;-72
2021/12/17 02:04:39;;;;;;;20.02;8.68;;;3.90;99.90;;;;;;5028980;28;19916;-72
2021/12/17 02:07:44;;;;;;;21.67;9.68;;;3.80;99.90;;;;;;5027240;28;20420;-72
2021/12/17 02:11:22;;;;;;;18.48;9.25;;;3.80;99.90;;;;;;5026896;28;20037;-72
2021/12/17 02:31:25;;;;;;;;;;;4.10;99.90;;;;;;5029356;28;20056;-72
2021/12/17 02:37:47;;;;;;;11.35;6.13;;;4.20;99.90;;;;;;5029868;28;20039;-72
2021/12/17 02:48:34;;;;;;;7.50;4.53;;;4.30;99.90;;;;;;5040664;28;20029;-72
2021/12/17 02:51:40;;;;;;;6.82;3.13;;;4.30;99.90;;;;;;5029027;28;20040;-71
2021/12/17 02:54:44;;;;;;;6.45;4.25;;;4.60;99.90;;;;;;5025368;28;20033;-72
2021/12/17 02:57:50;;;;;;;8.07;5.03;;;4.80;99.90;;;;;;5029399;28;20054;-72
2021/12/17 03:00:55;;;;;;;9.38;5.25;;;4.60;99.90;;;;;;5028287;28;20507;-72
2021/12/17 03:04:00;;;;;;;8.27;4.82;;;4.60;99.90;;;;;;5028580;28;20072;-72
2021/12/17 03:07:03;;;;;;;10.85;5.70;;;4.50;99.90;;;;;;5021933;28;20060;-72
2021/12/17 03:10:11;;;;;;;11.43;5.65;;;4.50;99.90;;;;;;5028742;28;20060;-72
2021/12/17 03:13:18;;;;;;;8.70;5.43;;;4.40;99.90;;;;;;5027505;28;20044;-72
2021/12/17 03:17:02;;;;;;;13.80;6.53;;;4.30;99.90;;;;;;5025072;28;20041;-72
2021/12/17 03:26:26;;;;;;;8.13;4.85;;;4.20;99.90;;;;;;5023479;28;20046;-72
2021/12/17 03:29:31;;;;;;;11.48;6.13;;;4.10;99.90;;;;;;5027870;28;20042;-72
2021/12/17 03:32:41;;;;;;;11.65;6.60;;;4.10;99.90;;;;;;5024926;28;20044;-72
2021/12/17 03:35:46;;;;;;;11.05;6.10;;;4.00;99.90;;;;;;5027025;28;20044;-72
2021/12/17 03:38:51;;;;;;;15.07;6.50;;;3.90;99.90;;;;;;5026912;28;20064;-72
2021/12/17 03:41:56;;;;;;;10.63;5.38;;;3.70;99.90;;;;;;5028511;28;20049;-72
2021/12/17 03:45:09;;;;;;;12.98;6.13;;;3.60;99.90;;;;;;5025819;28;20037;-72
2021/12/17 03:48:38;;;;;;;9.98;5.50;;;3.70;99.90;;;;;;5027722;28;20052;-72
2021/12/17 03:52:26;;;;;;;10.25;5.30;;;3.90;99.90;;;;;;5024699;28;20044;-72
2021/12/17 03:55:14;;;;;;;9.85;5.82;;;4.00;99.90;;;;;;5022288;28;20045;-72
2021/12/17 03:58:22;;;;;;;12.40;5.22;;;4.00;99.90;;;;;;5027451;28;20044;-72
2021/12/17 04:01:27;;;;;;;8.63;5.63;;;4.10;99.90;;;;;;5027829;28;20048;-72
2021/12/17 04:04:31;;;;;;;9.55;4.97;;;4.10;99.90;;;;;;5023965;28;20064;-72
2021/12/17 04:08:05;;;;;;;12.98;7.13;;;4.10;99.90;;;;;;5002433;28;20048;-72
2021/12/17 04:11:30;;;;;;;8.27;5.05;;;4.10;99.90;;;;;;5026290;28;20044;-72
2021/12/17 04:14:45;;;;;;;15.93;5.55;;;4.10;99.90;;;;;;5027286;28;20367;-72
2021/12/17 04:17:54;;;;;;;11.52;5.72;;;4.00;99.90;;;;;;5031924;28;20045;-72
2021/12/17 04:21:00;;;;;;;10.25;5.50;;;3.90;99.90;;;;;;5032130;28;20052;-72
2021/12/17 04:24:05;;;;;;;8.85;5.28;;;3.80;99.90;;;;;;5031283;28;20060;-72
2021/12/17 04:27:10;;;;;;;10.02;5.70;;;3.80;99.90;;;;;;5031998;28;20048;-72
2021/12/17 04:30:16;;;;;;;18.35;6.82;;;3.80;99.90;;;;;;5024838;28;20048;-72
2021/12/17 04:33:20;;;;;;;9.25;6.03;;;3.80;99.90;;;;;;5030223;28;20037;-72
2021/12/17 04:36:29;;;;;;;12.20;6.60;;;3.70;99.90;;;;;;5031269;28;20508;-72
2021/12/17 04:39:34;;;;;;;11.25;6.80;;;3.60;99.90;;;;;;5031194;28;20483;-72
2021/12/17 04:46:17;;;;;;;9.35;6.00;;;3.50;99.90;;;;;;5029969;28;20062;-71
2021/12/17 04:59:19;;;;;;;12.60;5.85;;;3.00;99.90;;;;;;5030375;28;20052;-72
2021/12/17 05:02:25;;;;;;;9.75;5.70;;;3.00;99.90;;;;;;5025334;28;20036;-72
2021/12/17 05:05:36;;;;;;;9.73;5.70;;;3.10;99.90;;;;;;5027182;28;20028;-72
2021/12/17 05:08:55;;;;;;;8.13;5.25;;;3.20;99.90;;;;;;5027461;28;20424;-72
2021/12/17 05:18:55;;;;;;;;;;;3.60;99.90;;;;;;5030123;28;20400;-72
2021/12/17 05:22:05;;;;;;;9.63;4.82;;;3.70;99.90;;;;;;5029123;28;19920;-72
2021/12/17 05:25:10;;;;;;;12.15;4.75;;;3.70;99.90;;;;;;5030540;28;20037;-72
2021/12/17 05:28:14;;;;;;;14.05;7.60;;;3.60;99.90;;;;;;5029763;28;20492;-72
2021/12/17 05:31:21;;;;;;;8.65;5.53;;;3.50;99.90;;;;;;5025658;28;20495;-72
2021/12/17 05:34:28;;;;;;;11.52;6.32;;;3.70;99.90;;;;;;5030203;28;20395;-72
2021/12/17 05:37:37;;;;;;;10.52;6.35;;;3.60;99.90;;;;;;5026366;28;20040;-72
2021/12/17 05:40:42;;;;;;;11.23;6.22;;;3.50;99.90;;;;;;5026658;28;20487;-72
2021/12/17 05:43:54;;;;;;;13.52;7.47;;;3.50;99.90;;;;;;5027507;28;20396;-72
2021/12/17 05:46:58;;;;;;;11.63;7.00;;;3.50;99.90;;;;;;5029435;28;20048;-72
2021/12/17 05:50:06;;;;;;;10.18;6.45;;;3.40;99.90;;;;;;5029385;28;20052;-72
2021/12/17 05:53:11;;;;;;;12.68;6.78;;;3.40;99.90;;;;;;5024590;28;20048;-72
2021/12/17 05:56:15;;;;;;;11.07;6.88;;;3.40;99.90;;;;;;5031355;28;20048;-71
2021/12/17 05:59:33;;;;;;;10.80;6.60;;;3.20;99.90;;;;;;5027172;28;20044;-71
2021/12/17 06:02:37;;;;;;;13.32;8.43;;;3.00;99.90;;;;;;5029087;28;20471;-72
2021/12/17 06:05:41;;;;;;;13.68;7.97;;;2.50;99.90;;;;;;5026644;28;20037;-72
2021/12/17 06:08:46;;;;;;;19.52;10.75;;;2.40;99.90;;;;;;5028707;28;20393;-72
2021/12/17 06:11:50;;;;;;;17.98;9.57;;;2.20;99.90;;;;;;5027014;28;20495;-72
2021/12/17 06:14:56;;;;;;;17.92;9.85;;;2.10;99.90;;;;;;5029374;28;20373;-72
2021/12/17 06:18:00;;;;;;;11.65;6.95;;;2.10;99.90;;;;;;5028469;28;20495;-72
2021/12/17 06:21:04;;;;;;;13.40;6.75;;;2.00;99.90;;;;;;5029133;28;20503;-72
2021/12/17 06:24:09;;;;;;;16.10;8.02;;;2.10;99.90;;;;;;5029228;28;20032;-72
2021/12/17 06:27:16;;;;;;;13.68;7.32;;;1.90;99.90;;;;;;5022638;28;20401;-72
2021/12/17 06:30:20;;;;;;;12.48;6.60;;;1.90;99.90;;;;;;5028413;28;20519;-71
2021/12/17 06:33:25;;;;;;;12.45;6.28;;;2.00;99.90;;;;;;5023850;28;20490;-71
2021/12/17 06:36:29;;;;;;;10.93;5.90;;;2.10;99.90;;;;;;5022798;28;20037;-72
2021/12/17 06:39:34;;;;;;;12.45;6.55;;;2.20;99.90;;;;;;5028345;28;20416;-72
2021/12/17 06:42:39;;;;;;;10.15;6.03;;;2.20;99.90;;;;;;5022620;28;20491;-72
2021/12/17 06:45:58;;;;;;;10.38;5.78;;;2.30;99.90;;;;;;5028122;28;20041;-72
2021/12/17 06:49:21;;;;;;;13.57;7.47;;;2.60;99.90;;;;;;5042429;28;20491;-71
2021/12/17 07:10:48;;;;;;;6.72;4.43;;;3.50;99.90;;;;;;5027497;28;20390;-72
2021/12/17 07:17:26;;;;;;;16.67;8.35;;;5.70;99.90;;;;;;5027783;28;20040;-72
2021/12/17 07:34:09;;;;;;;8.43;5.53;;;18.30;97.20;;;;;;5038874;28;20044;-73
2021/12/17 07:40:31;;;;;;;13.38;7.55;;;19.60;90.70;;;;;;5025316;28;20040;-71
2021/12/17 07:46:46;;;;;;;10.70;7.57;;;19.90;90.10;;;;;;5037910;28;20041;-71
2021/12/17 07:49:51;;;;;;;9.02;6.32;;;21.10;87.50;;;;;;5026418;28;20048;-71
2021/12/17 07:52:55;;;;;;;10.43;6.82;;;22.10;84.70;;;;;;5032504;28;20045;-70
2021/12/17 07:56:02;;;;;;;8.38;5.95;;;20.90;82.00;;;;;;5030879;28;20040;-73
2021/12/17 07:59:12;;;;;;;9.65;6.95;;;22.00;83.60;;;;;;5031096;28;20048;-71
2021/12/17 08:02:16;;;;;;;7.85;5.55;;;23.50;77.40;;;;;;5027213;28;20503;-71
2021/12/17 08:05:27;;;;;;;8.70;6.10;;;23.80;74.90;;;;;;5030137;28;20048;-71
2021/12/17 08:08:32;;;;;;;9.35;6.00;;;22.00;74.00;;;;;;5019624;28;20044;-71
2021/12/17 08:11:57;;;;;;;7.78;5.65;;;22.20;76.60;;;;;;5040635;28;20033;-71
2021/12/17 08:15:09;;;;;;;7.85;6.43;;;23.70;74.80;;;;;;5028325;28;20761;-71
2021/12/17 08:24:55;;;;;;;5.05;3.60;;;24.20;69.70;;;;;;5042876;28;20040;-70
2021/12/17 08:28:04;;;;;;;6.45;3.75;;;24.80;68.90;;;;;;5032045;28;20052;-71
2021/12/17 08:31:11;;;;;;;4.32;3.30;;;25.60;68.00;;;;;;5028759;28;20052;-70
2021/12/17 08:34:16;;;;;;;3.67;3.15;;;26.90;67.20;;;;;;5035791;28;20499;-71
2021/12/17 08:37:20;;;;;;;5.35;4.07;;;28.20;65.50;;;;;;5031939;28;20392;-70
2021/12/17 08:40:29;;;;;;;9.10;6.03;;;23.70;64.00;;;;;;5030128;28;20503;-71
2021/12/17 08:43:37;;;;;;;8.25;6.03;;;19.10;72.60;;;;;;5030792;28;20044;-71
2021/12/17 08:46:41;;;;;;;7.03;5.57;;;20.60;74.80;;;;;;5027896;28;20053;-71
2021/12/17 08:50:01;;;;;;;6.63;4.93;;;23.50;71.80;;;;;;5028509;28;20040;-71
2021/12/17 08:53:05;;;;;;;5.35;3.97;;;26.10;67.50;;;;;;5029041;28;20057;-71
2021/12/17 08:56:09;;;;;;;4.53;3.50;;;27.00;63.50;;;;;;5030957;28;20040;-73
2021/12/17 08:59:16;;;;;;;5.03;4.18;;;24.90;64.30;;;;;;5028116;28;20041;-73
2021/12/17 09:02:41;;;;;;;5.43;4.30;;;25.40;64.20;;;;;;5029009;28;20048;-72
2021/12/17 09:06:03;;;;;;;14.88;11.60;;;25.10;63.70;;;;;;5030098;28;20428;-71
2021/12/17 09:09:18;;;;;;;57.60;42.92;;;22.30;69.30;;;;;;5025642;28;20045;-72
2021/12/17 09:12:22;;;;;;;15.55;11.13;;;23.50;66.20;;;;;;5029536;28;20040;-72
2021/12/17 09:15:29;;;;;;;12.82;9.07;;;20.40;69.80;;;;;;5041433;28;20048;-72
2021/12/17 09:18:40;;;;;;;14.27;11.00;;;23.70;69.20;;;;;;5031112;28;20116;-72
2021/12/17 09:21:57;;;;;;;10.38;8.13;;;25.40;66.00;;;;;;5027705;28;20040;-73
2021/12/17 09:25:21;;;;;;;8.63;6.03;;;27.80;66.70;;;;;;5029727;28;20074;-73
2021/12/17 09:28:51;;;;;;;9.57;7.35;;;30.00;64.20;;;;;;5027596;28;20044;-73
2021/12/17 09:31:56;;;;;;;11.93;8.85;;;31.10;59.80;;;;;;5025006;28;20041;-73
2021/12/17 09:35:00;;;;;;;9.07;7.47;;;31.80;59.60;;;;;;5031339;28;20052;-73
2021/12/17 09:38:04;;;;;;;9.93;8.30;;;32.40;58.00;;;;;;5030609;28;20471;-73
2021/12/17 09:41:09;;;;;;;9.55;7.60;;;31.40;56.60;;;;;;5025077;28;20056;-73
2021/12/17 09:44:14;;;;;;;9.52;7.57;;;29.40;57.10;;;;;;5031488;28;20058;-72
2021/12/17 09:47:18;;;;;;;7.38;5.88;;;25.40;60.20;;;;;;5026567;28;20048;-72
2021/12/17 09:50:23;;;;;;;7.47;5.88;;;26.00;61.90;;;;;;5029536;28;20056;-72
2021/12/17 09:53:28;;;;;;;7.82;5.70;;;27.60;60.70;;;;;;5028917;28;20602;-72
2021/12/17 09:56:32;;;;;;;7.75;5.97;;;27.60;58.50;;;;;;5030499;28;20037;-72
2021/12/17 09:59:38;;;;;;;7.70;6.32;;;29.40;58.30;;;;;;5025575;28;21095;-71
2021/12/17 10:02:44;;;;;;;7.68;6.70;;;24.90;59.40;;;;;;5030211;28;20028;-72
2021/12/17 10:05:47;;;;;;;9.52;7.80;;;22.70;62.00;;;;;;5029465;28;20747;-72
2021/12/17 10:08:51;;;;;;;12.68;9.70;;;22.10;64.90;;;;;;5028345;28;20049;-71
2021/12/17 10:12:07;;;;;;;11.77;9.50;;;19.00;70.80;;;;;;5026667;28;20045;-72
2021/12/17 10:15:15;;;;;;;12.05;8.88;;;20.90;69.00;;;;;;5029389;28;20044;-71
2021/12/17 10:18:34;;;;;;;9.10;7.00;;;22.80;65.80;;;;;;5026141;28;20587;-72
2021/12/17 10:21:46;;;;;;;6.47;4.95;;;21.80;64.00;;;;;;5030589;28;20113;-72
2021/12/17 10:25:08;;;;;;;9.00;5.80;;;20.70;65.30;;;;;;5028514;28;20049;-72
2021/12/17 10:28:13;;;;;;;8.10;5.35;;;20.30;67.80;;;;;;5028899;28;20044;-72
2021/12/17 10:31:19;;;;;;;8.60;5.90;;;24.10;65.90;;;;;;5025535;28;20666;-72
2021/12/17 10:34:24;;;;;;;6.03;4.68;;;20.10;66.10;;;;;;5026042;28;20487;-71
2021/12/17 10:37:44;;;;;;;5.90;4.93;;;24.20;63.60;;;;;;5030019;28;20045;-70
2021/12/17 10:41:09;;;;;;;7.78;5.40;;;26.40;61.70;;;;;;5024704;28;20052;-72
2021/12/17 10:44:14;;;;;;;9.30;5.40;;;23.90;63.30;;;;;;5029067;28;20063;-72
2021/12/17 10:47:31;;;;;;;5.18;4.18;;;21.10;65.00;;;;;;5026764;28;20052;-72
2021/12/17 10:50:35;;;;;;;4.45;4.00;;;20.50;66.40;;;;;;5026041;28;20396;-72
2021/12/17 10:53:54;;;;;;;3.05;2.67;;;22.90;65.00;;;;;;5026763;28;20044;-72
2021/12/17 10:56:59;;;;;;;6.78;3.53;;;24.50;62.00;;;;;;5029926;28;20044;-71
2021/12/17 11:00:05;;;;;;;4.22;3.17;;;21.30;64.90;;;;;;5029805;28;20520;-71
2021/12/17 11:03:09;;;;;;;4.05;3.03;;;21.70;67.30;;;;;;5028661;28;20490;-72
2021/12/17 11:06:13;;;;;;;5.85;2.95;;;22.00;66.10;;;;;;5027981;28;20062;-73
2021/12/17 11:09:37;;;;;;;4.32;3.20;;;22.50;65.60;;;;;;5028706;28;20044;-72
2021/12/17 11:12:44;;;;;;;3.70;3.20;;;25.10;63.40;;;;;;5028096;28;20049;-72
2021/12/17 11:15:50;;;;;;;3.92;3.45;;;27.00;61.30;;;;;;5028816;28;20069;-72
2021/12/17 11:18:55;;;;;;;3.58;3.10;;;26.50;61.00;;;;;;5029138;28;20048;-72
2021/12/17 11:22:01;;;;;;;4.43;3.63;;;27.20;60.50;;;;;;5028572;28;20381;-73
2021/12/17 11:25:05;;;;;;;3.28;2.63;;;26.30;60.50;;;;;;5029091;28;20064;-71
2021/12/17 11:28:11;;;;;;;2.85;2.45;;;27.50;60.70;;;;;;5025871;28;20048;-70
2021/12/17 11:31:17;;;;;;;3.38;2.30;;;29.00;58.60;;;;;;5027042;28;20063;-70
2021/12/17 11:34:21;;;;;;;3.40;2.55;;;28.80;58.70;;;;;;5027591;28;20048;-72
2021/12/17 11:37:27;;;;;;;4.10;2.88;;;29.90;56.90;;;;;;5027909;28;20078;-70
2021/12/17 11:40:33;;;;;;;3.13;2.63;;;30.30;57.40;;;;;;5018290;28;20524;-69
2021/12/17 11:44:08;;;;;;;4.82;2.63;;;30.30;56.50;;;;;;5028394;28;20068;-72
2021/12/17 11:47:13;;;;;;;5.03;2.58;;;29.10;58.30;;;;;;5026987;28;20088;-72
2021/12/17 11:50:18;;;;;;;3.45;2.30;;;29.00;56.70;;;;;;5027508;28;20041;-72
2021/12/17 11:53:24;;;;;;;3.00;1.95;;;28.90;57.30;;;;;;5029347;28;20049;-70
2021/12/17 11:56:52;;;;;;;2.38;2.00;;;30.50;57.50;;;;;;5028767;28;20579;-72
2021/12/17 11:59:57;;;;;;;2.47;2.00;;;32.40;56.40;;;;;;5027159;28;20036;-72
2021/12/17 12:03:22;;;;;;;2.60;1.85;;;33.50;53.90;;;;;;5027723;28;20032;-72
2021/12/17 12:06:34;;;;;;;3.63;1.92;;;32.90;52.90;;;;;;5027199;28;20040;-72
2021/12/17 12:10:03;;;;;;;2.42;1.60;;;32.30;52.80;;;;;;5023389;28;20041;-71
2021/12/17 12:13:08;;;;;;;1.77;1.58;;;32.40;53.60;;;;;;5028063;28;20487;-71
2021/12/17 12:16:18;;;;;;;2.63;1.77;;;33.10;53.40;;;;;;5028660;28;20044;-71
2021/12/17 12:19:43;;;;;;;1.80;1.60;;;32.30;54.30;;;;;;5023504;28;20511;-72
2021/12/17 12:23:14;;;;;;;7.47;2.70;;;32.90;54.00;;;;;;5025628;28;20578;-71
2021/12/17 12:26:20;;;;;;;;;;;32.00;54.50;;;;;;5029139;28;20540;-71
2021/12/17 12:29:26;;;;;;;6.80;2.90;;;30.70;55.90;;;;;;5026670;28;19916;-71
2021/12/17 12:32:31;;;;;;;9.13;3.00;;;30.70;55.70;;;;;;5027987;28;20045;-72
2021/12/17 12:35:35;;;;;;;3.10;2.50;;;30.00;56.70;;;;;;5030958;28;20496;-72
2021/12/17 12:38:39;;;;;;;7.55;3.58;;;30.70;56.00;;;;;;5031354;28;20404;-71
2021/12/17 12:41:47;;;;;;;4.55;2.80;;;31.50;56.10;;;;;;5030259;28;20048;-72
2021/12/17 12:44:52;;;;;;;2.88;2.17;;;31.90;55.00;;;;;;5030817;28;20052;-72
2021/12/17 12:47:58;;;;;;;3.10;2.33;;;32.80;54.40;;;;;;5030571;28;20052;-71
2021/12/17 12:51:21;;;;;;;2.47;2.17;;;32.30;54.40;;;;;;5029820;28;20507;-72
2021/12/17 12:54:27;;;;;;;2.33;2.10;;;32.30;54.90;;;;;;5030558;28;20056;-74
2021/12/17 12:57:39;;;;;;;2.90;2.10;;;31.90;53.30;;;;;;5031429;28;20392;-72
2021/12/17 13:00:59;;;;;;;3.50;2.28;;;31.40;54.80;;;;;;5030787;28;20068;-71
2021/12/17 13:04:07;;;;;;;3.63;2.20;;;31.20;55.10;;;;;;5030518;28;20053;-71
2021/12/17 13:07:14;;;;;;;3.60;2.08;;;29.30;55.30;;;;;;5026194;28;20032;-71
2021/12/17 13:10:40;;;;;;;2.90;2.20;;;29.60;56.30;;;;;;5031517;28;20037;-71
2021/12/17 13:13:51;;;;;;;2.88;2.38;;;28.30;56.80;;;;;;5030676;28;20041;-72
2021/12/17 13:17:17;;;;;;;4.45;2.10;;;27.40;57.00;;;;;;5029597;28;20389;-72
2021/12/17 13:20:56;;;;;;;3.60;2.00;;;28.80;57.00;;;;;;5031199;28;20048;-72
2021/12/17 13:27:15;;;;;;;2.85;2.10;;;30.10;55.50;;;;;;5030335;28;20044;-72
2021/12/17 13:30:24;;;;;;;4.35;2.92;;;31.10;54.20;;;;;;5023798;28;20044;-72
2021/12/17 13:33:38;;;;;;;2.92;1.92;;;28.90;54.30;;;;;;5026423;28;20033;-72
2021/12/17 13:36:56;;;;;;;2.83;2.15;;;29.90;56.70;;;;;;5030200;28;20060;-72
2021/12/17 13:40:09;;;;;;;3.35;2.03;;;30.50;55.70;;;;;;5028652;28;20048;-71
2021/12/17 13:43:13;;;;;;;2.00;1.70;;;31.20;54.50;;;;;;5030357;28;20049;-71
2021/12/17 13:46:18;;;;;;;2.80;1.90;;;31.50;53.70;;;;;;5030762;28;20393;-71
2021/12/17 13:49:22;;;;;;;3.05;1.63;;;29.90;53.30;;;;;;5027965;28;20064;-72
2021/12/17 13:52:28;;;;;;;1.98;1.60;;;30.10;54.00;;;;;;5030292;28;20040;-71
2021/12/17 13:55:41;;;;;;;2.15;1.63;;;30.50;53.90;;;;;;5029245;28;20048;-71
2021/12/17 13:58:45;;;;;;;2.35;1.58;;;30.30;55.20;;;;;;5026845;28;20116;-71
2021/12/17 14:01:50;;;;;;;1.67;1.40;;;30.50;54.70;;;;;;5027968;28;20052;-71
2021/12/17 14:04:58;;;;;;;4.50;1.63;;;30.70;54.60;;;;;;5028487;28;20052;-72
2021/12/17 14:08:07;;;;;;;1.42;1.05;;;30.60;53.80;;;;;;5029676;28;20052;-73
2021/12/17 14:11:25;;;;;;;2.28;1.50;;;30.30;53.80;;;;;;5028694;28;20044;-72
2021/12/17 14:14:33;;;;;;;3.70;2.38;;;29.30;53.60;;;;;;5026330;28;20522;-72
2021/12/17 14:17:43;;;;;;;4.45;2.58;;;29.10;54.40;;;;;;5026167;28;20048;-72
2021/12/17 14:20:50;;;;;;;5.35;1.70;;;28.80;54.80;;;;;;5028374;28;20420;-73
2021/12/17 14:23:54;;;;;;;2.22;1.58;;;28.80;56.20;;;;;;5028885;28;20060;-72
2021/12/17 14:26:58;;;;;;;5.38;1.58;;;28.80;56.90;;;;;;5031294;28;20439;-72
2021/12/17 14:30:06;;;;;;;2.70;1.88;;;28.90;56.00;;;;;;5029514;28;20052;-72
2021/12/17 14:33:22;;;;;;;2.35;1.70;;;28.50;55.60;;;;;;5024260;28;20040;-72
2021/12/17 14:36:30;;;;;;;8.55;2.10;;;26.70;56.10;;;;;;5024464;28;20044;-73
2021/12/17 14:39:39;;;;;;;2.65;1.80;;;26.10;58.80;;;;;;5025575;28;20206;-72
2021/12/17 14:42:45;;;;;;;3.17;1.77;;;26.20;58.20;;;;;;5026113;28;20044;-72
2021/12/17 14:45:57;;;;;;;3.58;2.00;;;25.50;57.60;;;;;;5027433;28;20119;-72
2021/12/17 15:00:21;;;;;;;3.00;1.92;;;23.90;61.90;;;;;;5023400;28;20052;-72
2021/12/17 15:03:28;;;;;;;3.22;2.10;;;23.80;61.90;;;;;;5029866;28;20040;-72
2021/12/17 15:06:32;;;;;;;6.32;2.13;;;23.80;62.40;;;;;;5029654;28;20048;-72
2021/12/17 15:09:42;;;;;;;2.95;1.92;;;23.60;62.50;;;;;;5024404;28;20041;-72
2021/12/17 15:12:47;;;;;;;3.63;2.20;;;23.30;62.60;;;;;;5027927;28;20052;-72
2021/12/17 15:15:52;;;;;;;3.30;2.28;;;22.60;63.70;;;;;;5029455;28;20045;-72
2021/12/17 15:18:56;;;;;;;4.90;2.78;;;22.10;64.70;;;;;;5028298;28;20405;-72
2021/12/17 15:22:00;;;;;;;4.75;2.92;;;21.60;65.90;;;;;;5028105;28;20044;-72
2021/12/17 15:25:05;;;;;;;6.07;4.35;;;21.00;66.40;;;;;;5028773;28;20044;-72
2021/12/17 15:28:11;;;;;;;12.75;4.43;;;20.30;67.60;;;;;;5027835;28;20040;-72
2021/12/17 15:31:15;;;;;;;10.13;6.45;;;19.20;69.30;;;;;;5025438;28;20040;-71
2021/12/17 15:34:19;;;;;;;10.35;8.43;;;17.80;71.70;;;;;;5023522;28;20044;-71
2021/12/17 15:37:23;;;;;;;8.98;7.20;;;16.30;74.60;;;;;;5029020;28;20040;-71
2021/12/17 15:40:28;;;;;;;12.43;7.22;;;15.20;77.60;;;;;;5023272;28;20048;-71
2021/12/17 15:43:32;;;;;;;13.40;8.10;;;14.30;79.80;;;;;;5028880;28;20041;-71
2021/12/17 15:46:37;;;;;;;9.55;6.13;;;13.60;82.50;;;;;;5027889;28;20112;-71
2021/12/17 15:49:41;;;;;;;13.65;8.32;;;13.10;83.60;;;;;;5028236;28;20591;-74
2021/12/17 15:52:45;;;;;;;25.13;16.70;;;12.70;87.00;;;;;;5028827;28;20040;-71
2021/12/17 15:55:50;;;;;;;34.58;20.85;;;12.50;88.20;;;;;;5028949;28;20125;-71
2021/12/17 15:58:53;;;;;;;36.25;19.10;;;12.10;89.30;;;;;;5026910;28;20052;-71
2021/12/17 16:02:00;;;;;;;43.28;21.55;;;11.70;90.40;;;;;;5028803;28;20523;-72
2021/12/17 16:05:08;;;;;;;52.10;26.80;;;11.60;91.50;;;;;;5029008;28;20049;-74
2021/12/17 16:08:13;;;;;;;59.67;34.28;;;11.40;92.30;;;;;;5029077;28;20044;-73
2021/12/17 16:21:23;;;;;;;18.73;12.43;;;10.40;95.50;;;;;;5029228;28;19909;-74
2021/12/17 16:24:27;;;;;;;13.23;7.00;;;10.30;95.80;;;;;;5027181;28;20044;-71
2021/12/17 16:27:32;;;;;;;14.52;7.32;;;10.20;95.50;;;;;;5032726;28;20040;-72
2021/12/17 16:30:36;;;;;;;19.30;9.55;;;10.00;95.70;;;;;;5029441;28;20060;-73
2021/12/17 16:33:41;;;;;;;38.50;19.65;;;9.90;95.50;;;;;;5020656;28;20392;-71
2021/12/17 16:36:47;;;;;;;38.45;20.55;;;9.80;95.30;;;;;;5029708;28;20052;-71
2021/12/17 16:39:53;;;;;;;33.50;19.58;;;9.80;95.20;;;;;;5030276;28;20048;-73
2021/12/17 16:42:59;;;;;;;45.47;24.15;;;9.70;95.20;;;;;;5030069;28;20526;-73
2021/12/17 16:46:24;;;;;;;13.75;8.73;;;9.60;94.90;;;;;;5032316;28;20396;-73
2021/12/17 16:49:32;;;;;;;17.45;10.10;;;9.60;94.40;;;;;;5025671;28;20048;-73
2021/12/17 16:52:36;;;;;;;21.05;13.05;;;9.50;94.70;;;;;;5027442;28;20040;-73
2021/12/17 16:55:40;;;;;;;14.25;8.43;;;9.40;94.70;;;;;;5028425;28;20040;-73
2021/12/17 16:58:44;;;;;;;7.97;5.25;;;9.40;94.70;;;;;;5029175;28;20404;-73
2021/12/17 17:01:48;;;;;;;11.82;7.15;;;9.30;94.90;;;;;;5031498;28;20049;-73
2021/12/17 17:04:52;;;;;;;18.10;8.95;;;9.30;95.50;;;;;;5032058;28;20045;-73
2021/12/17 17:07:56;;;;;;;23.48;16.08;;;9.20;95.60;;;;;;5029171;28;20060;-73
2021/12/17 17:11:03;;;;;;;13.77;9.35;;;9.10;96.10;;;;;;5029696;28;20400;-73
2021/12/17 17:14:08;;;;;;;10.10;6.00;;;9.00;96.20;;;;;;5031997;28;20060;-73
2021/12/17 17:17:11;;;;;;;19.67;11.73;;;8.90;96.30;;;;;;5029925;28;20628;-71
2021/12/17 17:20:16;;;;;;;46.47;29.10;;;8.90;96.50;;;;;;5029591;28;20053;-70
2021/12/17 17:23:20;;;;;;;16.33;9.85;;;8.80;96.80;;;;;;5031830;28;20048;-71
2021/12/17 17:26:24;;;;;;;12.52;7.55;;;8.70;97.00;;;;;;5028443;28;20421;-72
2021/12/17 17:29:28;;;;;;;17.45;11.57;;;8.70;97.10;;;;;;5030290;28;20100;-73
2021/12/17 17:32:35;;;;;;;8.95;5.97;;;8.60;97.00;;;;;;5028869;28;20044;-73
2021/12/17 17:35:39;;;;;;;18.65;12.02;;;8.60;95.80;;;;;;5030711;28;20505;-73
2021/12/17 17:38:43;;;;;;;42.72;25.85;;;8.60;95.20;;;;;;5026486;28;20036;-70
2021/12/17 17:41:48;;;;;;;46.78;27.50;;;8.60;95.30;;;;;;5028434;28;20040;-72
2021/12/17 17:44:52;;;;;;;95.40;40.58;;;8.60;94.60;;;;;;5030866;28;20515;-73
2021/12/17 17:47:56;;;;;;;41.33;21.20;;;8.60;94.30;;;;;;5030027;28;20060;-72
2021/12/17 17:51:00;;;;;;;32.63;18.83;;;8.60;93.20;;;;;;5030937;28;20398;-72
2021/12/17 17:54:04;;;;;;;32.80;16.33;;;8.70;92.60;;;;;;5029777;28;20060;-73
2021/12/17 17:57:09;;;;;;;67.20;31.33;;;8.80;91.40;;;;;;5030245;28;20048;-73
2021/12/17 18:00:13;;;;;;;132.13;59.85;;;8.70;91.10;;;;;;5029873;28;20044;-72
2021/12/17 18:03:18;;;;;;;37.85;18.42;;;8.60;91.50;;;;;;5028498;28;20040;-73
2021/12/17 18:06:23;;;;;;;31.25;15.48;;;8.60;91.60;;;;;;5030033;28;20420;-72
2021/12/17 18:09:26;;;;;;;41.88;22.05;;;8.60;93.40;;;;;;5024239;28;20048;-72
2021/12/17 18:12:30;;;;;;;25.05;13.55;;;8.70;94.40;;;;;;5025905;28;20488;-72
2021/12/17 18:15:34;;;;;;;21.63;11.25;;;8.70;95.80;;;;;;5026752;28;20036;-72
2021/12/17 18:18:39;;;;;;;44.90;34.60;;;8.70;96.80;;;;;;5026595;28;20048;-72
2021/12/17 18:21:43;;;;;;;80.13;50.15;;;8.60;97.20;;;;;;5027786;28;20044;-72
2021/12/17 18:24:47;;;;;;;36.92;23.60;;;8.40;96.80;;;;;;5028591;28;20052;-73
2021/12/17 18:27:51;;;;;;;177.98;101.78;;;8.10;96.90;;;;;;5026965;28;20048;-72
2021/12/17 18:30:55;;;;;;;137.38;78.32;;;7.90;98.20;;;;;;5028752;28;20056;-73
2021/12/17 18:33:59;;;;;;;78.97;42.65;;;7.80;99.40;;;;;;5028829;28;20049;-72
2021/12/17 18:37:03;;;;;;;46.00;26.08;;;7.80;99.80;;;;;;5029030;28;20537;-72
2021/12/17 18:40:13;;;;;;;30.83;17.73;;;7.80;99.90;;;;;;5028595;28;20045;-72
2021/12/17 18:46:49;;;;;;;19.08;11.43;;;7.90;99.90;;;;;;5027604;28;20037;-72
2021/12/17 18:49:54;;;;;;;17.10;10.07;;;7.80;99.90;;;;;;5027953;28;20052;-72
2021/12/17 18:52:58;;;;;;;26.25;17.50;;;7.70;99.90;;;;;;5030246;28;20057;-73
2021/12/17 18:56:03;;;;;;;26.35;15.18;;;7.60;99.90;;;;;;5029642;28;20049;-72
2021/12/17 18:59:09;;;;;;;17.67;11.18;;;7.50;99.90;;;;;;5028848;28;20036;-72
2021/12/17 19:02:13;;;;;;;26.23;17.50;;;7.50;99.90;;;;;;5030278;28;20051;-73
2021/12/17 19:05:17;;;;;;;42.72;31.10;;;7.40;99.90;;;;;;5035736;28;20056;-72
2021/12/17 19:08:22;;;;;;;28.13;19.15;;;7.30;99.90;;;;;;5025673;28;20048;-73
2021/12/17 19:11:26;;;;;;;39.85;22.42;;;7.20;99.90;;;;;;5029819;28;20052;-72
2021/12/17 19:14:32;;;;;;;46.83;30.38;;;7.10;99.90;;;;;;5025179;28;20045;-72
2021/12/17 19:17:36;;;;;;;35.63;22.65;;;6.90;99.90;;;;;;5025160;28;20048;-72
2021/12/17 19:20:43;;;;;;;43.72;27.98;;;6.80;99.90;;;;;;5026022;28;20408;-72
2021/12/17 19:23:48;;;;;;;50.72;32.47;;;6.80;99.90;;;;;;5027897;28;20048;-72
2021/12/17 19:26:53;;;;;;;41.85;22.92;;;6.70;99.90;;;;;;5028684;28;20048;-72